SCUZ weather

Aerosanta Cruz Airport
Santa Cruz, O'Higgins Region, Chile

Public forecast

Using degrees Celsius for public forecast. Weather courtesy of forecast.io.

METAR (pilot weather report)

Closest report is General Freire Airport, 20.8 nm (38.6 km) SSE. Retrieved 2019/02/15 21:00 UTC (27 minutes ago):

SCIC 152100Z 33008KT 8000 NSC 31/15 Q1009

TAF (pilot weather forecast)

Closest forecast is Comodoro Arturo Merino Benítez International Airport, 81.1 nm (150.2 km) NNE. Retrieved 2019/02/15 18:00 UTC (3 hours ago):

TAF SCEL 151630Z 1518/1618 19012KT CAVOK TX34/1519Z TN14/1611Z BECMG 1519/1521 21012KT BECMG 1601/1603 15005KT BECMG 1608/1610 7000 NSC TEMPO 1610/1614 4000 BR SCT005